createdAt,value
2018-03-15T00:01:58.405Z,15.90
2018-03-15T00:04:25.943Z,15.80
2018-03-15T00:06:55.280Z,16.00
2018-03-15T00:09:22.816Z,15.60
2018-03-15T00:11:50.345Z,15.60
2018-03-15T00:14:17.889Z,15.50
2018-03-15T00:16:45.422Z,15.25
2018-03-15T00:19:12.993Z,15.77
2018-03-15T00:21:41.320Z,16.30
2018-03-15T00:24:09.784Z,16.93
2018-03-15T00:26:37.332Z,16.73
2018-03-15T00:29:05.798Z,16.70
2018-03-15T00:31:33.340Z,16.53
2018-03-15T00:34:00.905Z,14.95
2018-03-15T00:36:28.440Z,16.20
2018-03-15T00:38:57.709Z,16.43
2018-03-15T00:41:26.037Z,16.50
2018-03-15T00:43:53.850Z,18.80
2018-03-15T00:46:21.537Z,17.93
2018-03-15T00:48:50.200Z,16.53
2018-03-15T00:51:17.737Z,17.17
2018-03-15T00:53:45.277Z,18.20
2018-03-15T00:56:12.809Z,17.07
2018-03-15T00:58:40.334Z,16.80
2018-03-15T01:01:07.863Z,18.10
2018-03-15T01:03:36.147Z,16.87
2018-03-15T01:06:03.688Z,18.40
2018-03-15T01:08:31.372Z,17.10
2018-03-15T01:10:59.161Z,18.90
2018-03-15T01:13:26.693Z,17.40
2018-03-15T01:15:55.112Z,18.30
2018-03-15T01:18:22.660Z,19.47
2018-03-15T01:20:51.736Z,19.08
2018-03-15T01:23:19.272Z,18.77
2018-03-15T01:25:46.803Z,19.83
2018-03-15T01:28:14.357Z,19.90
2018-03-15T01:30:41.889Z,18.43
2018-03-15T01:33:09.452Z,19.57
2018-03-15T01:35:36.984Z,18.77
2018-03-15T01:38:04.529Z,19.30
2018-03-15T01:40:32.049Z,20.47
2018-03-15T01:43:00.457Z,18.03
2018-03-15T01:45:27.998Z,19.37
2018-03-15T01:47:55.617Z,19.57
2018-03-15T01:50:23.904Z,20.40
2018-03-15T01:52:51.434Z,19.90
2018-03-15T01:55:18.992Z,20.10
2018-03-15T01:57:46.554Z,20.63
2018-03-15T02:00:14.098Z,18.80
2018-03-15T02:02:41.607Z,19.63
2018-03-15T02:05:09.153Z,20.07
2018-03-15T02:07:36.678Z,21.80
2018-03-15T02:10:04.368Z,20.80
2018-03-15T02:12:31.890Z,21.00
2018-03-15T02:15:00.268Z,21.37
2018-03-15T02:17:27.792Z,21.30
2018-03-15T02:19:55.331Z,19.10
2018-03-15T02:22:22.889Z,21.07
2018-03-15T02:24:50.423Z,19.03
2018-03-15T02:27:17.955Z,19.97
2018-03-15T02:29:45.536Z,19.90
2018-03-15T02:32:13.076Z,19.47
2018-03-15T02:34:40.621Z,19.40
2018-03-15T02:37:08.158Z,21.00
2018-03-15T02:39:35.685Z,20.73
2018-03-15T02:42:03.245Z,18.87
2018-03-15T02:44:30.768Z,20.03
2018-03-15T02:46:58.335Z,18.93
2018-03-15T02:49:25.854Z,19.37
2018-03-15T02:51:53.385Z,19.48
2018-03-15T02:54:21.693Z,18.30
2018-03-15T02:56:49.220Z,20.03
2018-03-15T02:59:16.757Z,20.23
2018-03-15T03:01:44.289Z,20.27
2018-03-15T03:04:12.596Z,20.70
2018-03-15T03:06:40.149Z,18.30
2018-03-15T03:09:07.714Z,20.08
2018-03-15T03:11:35.400Z,20.33
2018-03-15T03:14:03.005Z,18.33
2018-03-15T03:16:31.301Z,20.23
2018-03-15T03:18:58.849Z,19.70
2018-03-15T03:21:26.374Z,19.60
2018-03-15T03:23:54.705Z,18.63
2018-03-15T03:26:23.753Z,19.62
2018-03-15T03:28:51.327Z,18.25
2018-03-15T03:31:18.876Z,18.00
2018-03-15T03:33:46.421Z,18.30
2018-03-15T03:36:13.978Z,18.00
2018-03-15T03:38:41.689Z,18.20
2018-03-15T03:41:09.286Z,19.63
2018-03-15T03:43:37.591Z,18.20
2018-03-15T03:46:05.142Z,18.00
2018-03-15T03:48:32.677Z,17.20
2018-03-15T03:51:00.224Z,18.43
2018-03-15T03:53:27.750Z,19.37
2018-03-15T03:55:55.286Z,19.17
2018-03-15T03:58:22.810Z,18.37
2018-03-15T04:03:32.612Z,19.17
2018-03-15T04:06:00.165Z,17.10
2018-03-15T04:08:27.785Z,18.23
2018-03-15T04:10:55.350Z,19.30
2018-03-15T04:13:22.878Z,17.50
2018-03-15T04:15:50.397Z,18.97
2018-03-15T04:18:17.940Z,19.17
2018-03-15T04:20:45.476Z,16.97
2018-03-15T04:23:13.020Z,18.03
2018-03-15T04:25:40.562Z,19.17
2018-03-15T04:28:08.117Z,18.97
2018-03-15T04:30:35.645Z,18.37
2018-03-15T04:33:03.190Z,18.77
2018-03-15T04:35:30.728Z,19.80
2018-03-15T04:37:59.038Z,19.50
2018-03-15T04:40:26.558Z,19.27
2018-03-15T04:42:54.231Z,20.02
2018-03-15T04:45:21.748Z,20.30
2018-03-15T04:47:49.332Z,20.25
2018-03-15T04:50:16.905Z,20.80
2018-03-15T04:52:45.230Z,20.75
2018-03-15T04:55:12.765Z,21.80
2018-03-15T04:57:40.312Z,21.77
2018-03-15T05:00:07.858Z,20.70
2018-03-15T05:02:35.451Z,21.63
2018-03-15T05:05:04.374Z,21.53
2018-03-15T05:07:31.898Z,23.40
2018-03-15T05:09:59.573Z,22.90
2018-03-15T05:12:27.107Z,24.60
2018-03-15T05:14:54.757Z,21.83
2018-03-15T05:17:22.294Z,25.30
2018-03-15T05:19:49.868Z,22.80
2018-03-15T05:22:17.393Z,24.73
2018-03-15T05:24:44.938Z,23.90
2018-03-15T05:27:12.669Z,24.90
2018-03-15T05:29:40.922Z,23.50
2018-03-15T05:32:08.465Z,24.50
2018-03-15T05:34:36.008Z,23.20
2018-03-15T05:37:05.009Z,23.62
2018-03-15T05:39:32.534Z,24.33
2018-03-15T05:42:00.073Z,23.53
2018-03-15T05:44:27.752Z,25.17
2018-03-15T05:46:55.298Z,25.42
2018-03-15T05:49:22.837Z,25.50
2018-03-15T05:51:50.451Z,26.13
2018-03-15T05:54:17.977Z,27.10
2018-03-15T05:56:46.387Z,26.93
2018-03-15T05:59:13.917Z,25.97
2018-03-15T06:01:41.442Z,27.57
2018-03-15T06:04:08.986Z,27.33
2018-03-15T06:06:36.549Z,24.70
2018-03-15T06:09:05.781Z,23.83
2018-03-15T06:11:33.300Z,25.50
2018-03-15T06:14:00.872Z,25.80
2018-03-15T06:16:28.473Z,24.43
2018-03-15T06:18:56.033Z,24.50
2018-03-15T06:21:24.389Z,24.90
2018-03-15T06:23:51.989Z,25.70
2018-03-15T06:26:20.299Z,25.80
2018-03-15T06:28:47.848Z,23.80
2018-03-15T06:31:15.383Z,26.13
2018-03-15T06:33:42.918Z,25.40
2018-03-15T06:36:10.449Z,24.70
2018-03-15T06:38:38.008Z,24.73
2018-03-15T06:41:06.788Z,23.65
2018-03-15T06:43:34.330Z,25.00
2018-03-15T06:46:01.870Z,23.20
2018-03-15T06:48:29.409Z,25.23
2018-03-15T06:50:56.950Z,24.53
2018-03-15T06:53:24.510Z,24.23
2018-03-15T06:55:52.061Z,25.83
2018-03-15T06:58:19.599Z,25.63
2018-03-15T07:00:47.158Z,23.97
2018-03-15T07:03:14.680Z,22.43
2018-03-15T07:05:42.218Z,22.23
2018-03-15T07:08:09.744Z,24.00
2018-03-15T07:10:37.285Z,22.73
2018-03-15T07:13:04.830Z,23.47
2018-03-15T07:15:32.357Z,23.50
2018-03-15T07:18:00.665Z,22.30
2018-03-15T07:20:28.185Z,22.00
2018-03-15T07:22:55.786Z,21.92
2018-03-15T07:25:23.319Z,23.00
2018-03-15T07:27:50.889Z,22.55
2018-03-15T07:30:19.193Z,21.93
2018-03-15T07:32:46.773Z,23.80
2018-03-15T07:35:14.484Z,23.20
2018-03-15T07:37:42.029Z,21.85
2018-03-15T07:40:09.696Z,22.90
2018-03-15T07:42:37.233Z,25.43
2018-03-15T07:45:04.744Z,25.07
2018-03-15T07:47:33.058Z,26.03
2018-03-15T07:50:00.590Z,22.30
2018-03-15T07:52:28.128Z,22.90
2018-03-15T07:54:55.650Z,22.50
2018-03-15T07:57:23.190Z,21.67
2018-03-15T07:59:50.925Z,22.70
2018-03-15T08:02:18.470Z,23.25
2018-03-15T08:04:46.773Z,24.70
2018-03-15T08:07:14.426Z,26.03
2018-03-15T08:09:41.972Z,24.60
2018-03-15T08:12:09.523Z,22.53
2018-03-15T08:14:37.120Z,25.70
2018-03-15T08:17:04.719Z,25.47
2018-03-15T08:19:32.277Z,24.40
2018-03-15T08:21:59.896Z,24.93
2018-03-15T08:24:27.545Z,26.83
2018-03-15T08:26:56.061Z,27.62
2018-03-15T08:29:24.475Z,26.47
2018-03-15T08:31:52.024Z,27.00
2018-03-15T08:34:19.560Z,28.03
2018-03-15T08:36:47.118Z,27.10
2018-03-15T08:39:14.705Z,26.67
2018-03-15T08:41:43.046Z,26.87
2018-03-15T08:44:11.366Z,23.75
2018-03-15T08:46:38.910Z,25.03
2018-03-15T08:49:06.481Z,26.47
2018-03-15T08:51:34.126Z,25.27
2018-03-15T08:54:01.686Z,27.13
2018-03-15T08:56:29.263Z,25.83
2018-03-15T08:58:56.790Z,25.30
2018-03-15T09:01:25.101Z,24.77
2018-03-15T09:03:52.722Z,24.47
2018-03-15T09:06:20.267Z,25.62
2018-03-15T09:08:47.863Z,25.90
2018-03-15T09:11:15.497Z,25.42
2018-03-15T09:13:43.024Z,24.63
2018-03-15T09:16:10.609Z,25.97
2018-03-15T09:18:38.178Z,26.13
2018-03-15T09:21:05.725Z,23.70
2018-03-15T09:23:33.286Z,23.80
2018-03-15T09:26:00.825Z,22.50
2018-03-15T09:28:28.361Z,22.37
2018-03-15T09:30:56.742Z,22.20
2018-03-15T09:33:24.518Z,20.60
2018-03-15T09:35:52.077Z,22.20
2018-03-15T09:38:19.663Z,22.17
2018-03-15T09:40:47.233Z,23.87
2018-03-15T09:43:14.777Z,24.50
2018-03-15T09:45:42.370Z,23.37
2018-03-15T09:48:11.827Z,24.90
2018-03-15T09:50:39.408Z,24.80
2018-03-15T09:53:07.014Z,25.60
2018-03-15T09:55:34.558Z,25.43
2018-03-15T09:58:02.098Z,24.77
2018-03-15T10:00:29.714Z,24.10
2018-03-15T10:02:57.294Z,23.77
2018-03-15T10:05:24.860Z,25.30
2018-03-15T10:07:52.396Z,24.87
2018-03-15T10:10:20.035Z,24.40
2018-03-15T10:12:47.593Z,24.15
2018-03-15T10:15:17.061Z,24.33
2018-03-15T10:17:44.637Z,22.37
2018-03-15T10:20:12.966Z,23.77
2018-03-15T10:22:40.525Z,23.63
2018-03-15T10:25:13.769Z,23.17
2018-03-15T10:27:35.713Z,23.43
2018-03-15T10:30:03.264Z,23.67
2018-03-15T10:32:30.829Z,24.00
2018-03-15T10:35:04.117Z,22.33
2018-03-15T10:37:39.129Z,21.53
2018-03-15T10:40:07.470Z,21.67
2018-03-15T10:42:35.005Z,22.77
2018-03-15T10:45:02.580Z,21.43
2018-03-15T10:47:30.894Z,21.03
2018-03-15T10:49:58.475Z,21.90
2018-03-15T10:52:26.029Z,21.10
2018-03-15T10:54:54.345Z,21.57
2018-03-15T10:57:21.925Z,20.52
2018-03-15T10:59:49.480Z,20.13
2018-03-15T11:02:18.756Z,20.90
2018-03-15T11:04:52.039Z,19.83
2018-03-15T11:07:25.190Z,21.58
2018-03-15T11:09:52.886Z,20.57
2018-03-15T11:12:21.201Z,20.47
2018-03-15T11:14:48.848Z,20.57
2018-03-15T11:17:16.430Z,21.08
2018-03-15T11:19:44.741Z,19.47
2018-03-15T11:22:13.626Z,20.70
2018-03-15T11:24:41.185Z,19.50
2018-03-15T11:27:08.742Z,19.90
2018-03-15T11:29:36.298Z,20.87
2018-03-15T11:32:03.912Z,19.15
2018-03-15T11:34:31.578Z,19.73
2018-03-15T11:36:59.152Z,18.60
2018-03-15T11:39:26.932Z,19.50
2018-03-15T11:41:54.582Z,19.17
2018-03-15T11:44:22.248Z,19.50
2018-03-15T11:46:49.814Z,17.87
2018-03-15T11:49:18.161Z,16.70
2018-03-15T11:51:46.480Z,17.87
2018-03-15T11:54:14.053Z,18.73
2018-03-15T11:56:41.606Z,18.40
2018-03-15T11:59:09.177Z,16.70
2018-03-15T12:01:37.542Z,16.87
2018-03-15T12:04:05.059Z,17.27
2018-03-15T12:06:33.029Z,16.60
2018-03-15T12:09:00.741Z,16.90
2018-03-15T12:11:28.288Z,16.80
2018-03-15T12:13:55.852Z,16.43
2018-03-15T12:16:23.429Z,16.20
2018-03-15T12:18:51.965Z,17.53
2018-03-15T12:21:19.508Z,16.87
2018-03-15T12:23:47.090Z,15.40
2018-03-15T12:26:14.649Z,16.40
2018-03-15T12:28:42.202Z,15.90
2018-03-15T12:31:10.585Z,16.80
2018-03-15T12:33:38.125Z,15.93
2018-03-15T12:36:05.698Z,15.47
2018-03-15T12:38:33.234Z,15.70
2018-03-15T12:41:00.790Z,19.53
2018-03-15T12:43:28.313Z,18.03
2018-03-15T12:45:55.893Z,16.70
2018-03-15T12:48:23.485Z,15.47
2018-03-15T12:50:51.259Z,19.03
2018-03-15T12:53:18.951Z,20.57
2018-03-15T12:55:46.496Z,15.97
2018-03-15T12:58:14.854Z,14.38
2018-03-15T13:00:42.409Z,15.73
2018-03-15T13:03:10.831Z,14.57
2018-03-15T13:05:38.393Z,15.97
2018-03-15T13:08:06.725Z,15.40
2018-03-15T13:10:34.248Z,15.93
2018-03-15T13:13:01.823Z,13.80
2018-03-15T13:15:29.434Z,17.60
2018-03-15T13:17:57.733Z,17.13
2018-03-15T13:20:25.290Z,33.50
2018-03-15T13:22:52.825Z,17.83
2018-03-15T13:25:20.349Z,19.20
2018-03-15T13:27:47.941Z,17.93
2018-03-15T13:30:15.728Z,14.73
2018-03-15T13:32:43.294Z,16.00
2018-03-15T13:35:10.818Z,14.57
2018-03-15T13:37:38.390Z,14.30
2018-03-15T13:40:06.046Z,15.87
2018-03-15T13:42:33.589Z,16.53
2018-03-15T13:45:01.288Z,15.60
2018-03-15T13:47:29.605Z,14.80
2018-03-15T13:49:57.171Z,15.73
2018-03-15T13:52:24.701Z,14.63
2018-03-15T13:54:52.238Z,15.03
2018-03-15T13:57:19.767Z,15.80
2018-03-15T13:59:47.337Z,17.00
2018-03-15T14:02:14.872Z,15.73
2018-03-15T14:04:42.442Z,15.53
2018-03-15T14:07:11.651Z,15.63
2018-03-15T14:09:39.970Z,15.60
2018-03-15T14:12:07.565Z,15.50
2018-03-15T14:14:35.189Z,16.30
2018-03-15T14:17:02.676Z,14.77
2018-03-15T14:19:30.214Z,14.97
2018-03-15T14:21:57.863Z,16.40
2018-03-15T14:24:25.505Z,16.40
2018-03-15T14:26:53.033Z,15.63
2018-03-15T14:29:20.714Z,16.27
2018-03-15T14:31:48.205Z,17.20
2018-03-15T14:34:17.476Z,16.77
2018-03-15T14:36:45.793Z,16.13
2018-03-15T14:39:13.557Z,16.43
2018-03-15T14:41:41.117Z,15.50
2018-03-15T14:44:08.636Z,17.30
2018-03-15T14:46:36.299Z,17.23
2018-03-15T14:49:03.827Z,15.90
2018-03-15T14:51:31.532Z,17.30
2018-03-15T14:53:59.134Z,17.43
2018-03-15T14:56:26.690Z,15.65
2018-03-15T14:58:54.214Z,16.20
2018-03-15T15:01:21.786Z,16.15
2018-03-15T15:03:49.313Z,16.73
2018-03-15T15:06:17.806Z,16.95
2018-03-15T15:08:46.101Z,16.67
2018-03-15T15:11:13.675Z,15.43
2018-03-15T15:13:41.249Z,18.17
2018-03-15T15:16:09.037Z,17.30
2018-03-15T15:18:36.577Z,16.23
2018-03-15T15:21:04.157Z,15.93
2018-03-15T15:23:31.686Z,16.53
2018-03-15T15:25:59.254Z,15.83
2018-03-15T15:28:26.798Z,15.90
2018-03-15T15:30:54.376Z,16.33
2018-03-15T15:33:21.897Z,14.50
2018-03-15T15:35:49.417Z,15.10
2018-03-15T15:38:16.957Z,15.10
2018-03-15T15:40:44.601Z,17.17
2018-03-15T15:43:12.231Z,15.03
2018-03-15T15:45:40.525Z,15.93
2018-03-15T15:48:08.075Z,15.45
2018-03-15T15:50:35.602Z,15.80
2018-03-15T15:53:03.269Z,15.65
2018-03-15T15:55:30.903Z,18.53
2018-03-15T15:57:58.781Z,15.93
2018-03-15T16:00:26.341Z,15.45
2018-03-15T16:02:54.648Z,15.90
2018-03-15T16:05:22.344Z,15.10
2018-03-15T16:07:49.965Z,15.23
2018-03-15T16:10:17.491Z,15.60
2018-03-15T16:12:45.043Z,14.53
2018-03-15T16:15:12.581Z,14.07
2018-03-15T16:17:40.111Z,14.70
2018-03-15T16:20:07.688Z,16.20
2018-03-15T16:22:35.216Z,15.73
2018-03-15T16:25:03.565Z,17.50
2018-03-15T16:27:31.115Z,16.67
2018-03-15T16:29:58.727Z,17.10
2018-03-15T16:32:27.037Z,16.20
2018-03-15T16:34:54.629Z,16.70
2018-03-15T16:37:22.153Z,16.70
2018-03-15T16:39:49.692Z,16.40
2018-03-15T16:42:17.218Z,18.73
2018-03-15T16:44:44.794Z,18.07
2018-03-15T16:47:13.087Z,18.13
2018-03-15T16:49:41.403Z,18.60
2018-03-15T16:52:08.934Z,18.57
2018-03-15T16:54:36.471Z,18.60
2018-03-15T16:57:03.993Z,17.70
2018-03-15T16:59:31.582Z,17.27
2018-03-15T17:01:59.133Z,17.97
2018-03-15T17:04:26.710Z,18.37
2018-03-15T17:06:55.990Z,18.27
2018-03-15T17:09:24.413Z,20.10
2018-03-15T17:11:51.953Z,20.57
2018-03-15T17:14:19.553Z,19.07
2018-03-15T17:16:47.102Z,18.00
2018-03-15T17:19:15.463Z,19.23
2018-03-15T17:21:42.969Z,18.47
2018-03-15T17:24:10.759Z,19.67
2018-03-15T17:26:38.357Z,19.55
2018-03-15T17:29:05.958Z,23.00
2018-03-15T17:31:33.537Z,20.25
2018-03-15T17:34:01.078Z,22.10
2018-03-15T17:36:28.638Z,22.42
2018-03-15T17:38:56.469Z,19.73
2018-03-15T17:41:24.450Z,19.60
2018-03-15T17:43:52.160Z,20.83
2018-03-15T17:46:20.611Z,22.47
2018-03-15T17:48:48.168Z,21.20
2018-03-15T17:51:15.710Z,22.33
2018-03-15T17:53:43.244Z,21.90
2018-03-15T17:56:10.769Z,20.03
2018-03-15T17:58:39.108Z,21.03
2018-03-15T18:01:06.630Z,21.07
2018-03-15T18:03:34.177Z,23.10
2018-03-15T18:06:01.726Z,22.83
2018-03-15T18:08:29.265Z,21.50
2018-03-15T18:10:56.802Z,21.05
2018-03-15T18:13:24.394Z,19.50
2018-03-15T18:15:52.773Z,22.27
2018-03-15T18:18:20.281Z,20.60
2018-03-15T18:20:47.897Z,21.63
2018-03-15T18:23:15.453Z,21.90
2018-03-15T18:25:42.979Z,21.00
2018-03-15T18:28:10.518Z,24.30
2018-03-15T18:30:38.066Z,23.43
2018-03-15T18:33:05.615Z,25.30
2018-03-15T18:35:33.154Z,23.10
2018-03-15T18:38:00.758Z,24.90
2018-03-15T18:40:29.074Z,24.00
2018-03-15T18:42:56.596Z,24.17
2018-03-15T18:45:24.916Z,22.42
2018-03-15T18:47:53.237Z,23.65
2018-03-15T18:50:20.790Z,24.53
2018-03-15T18:52:48.368Z,26.33
2018-03-15T18:55:17.701Z,26.37
2018-03-15T18:57:45.221Z,27.40
2018-03-15T19:00:12.821Z,28.17
2018-03-15T19:02:40.354Z,28.03
2018-03-15T19:05:08.888Z,26.53
2018-03-15T19:07:36.418Z,26.70
2018-03-15T19:10:04.717Z,28.17
2018-03-15T19:12:32.246Z,27.30
2018-03-15T19:14:59.806Z,26.33
2018-03-15T19:17:27.666Z,31.57
2018-03-15T19:19:55.214Z,27.80
2018-03-15T19:22:22.747Z,29.20
2018-03-15T19:24:50.315Z,28.60
2018-03-15T19:27:17.857Z,27.57
2018-03-15T19:29:45.401Z,28.90
2018-03-15T19:32:12.949Z,28.47
2018-03-15T19:34:40.470Z,26.40
2018-03-15T19:37:08.120Z,29.70
2018-03-15T19:39:35.674Z,25.87
2018-03-15T19:42:03.210Z,28.03
2018-03-15T19:44:30.741Z,27.10
2018-03-15T19:46:59.209Z,27.40
2018-03-15T19:49:26.724Z,26.40
2018-03-15T19:51:55.675Z,29.33
2018-03-15T19:54:24.929Z,27.90
2018-03-15T19:56:53.277Z,25.57
2018-03-15T19:59:20.818Z,28.60
2018-03-15T20:01:49.314Z,29.07
2018-03-15T20:04:17.111Z,29.03
2018-03-15T20:06:45.207Z,27.50
2018-03-15T20:09:12.766Z,28.87
2018-03-15T20:11:40.314Z,30.25
2018-03-15T20:14:07.863Z,28.23
2018-03-15T20:16:35.405Z,28.83
2018-03-15T20:19:08.760Z,28.40
2018-03-15T20:21:36.345Z,30.43
2018-03-15T20:24:09.723Z,31.03
2018-03-15T20:26:37.285Z,32.40
2018-03-15T20:29:05.579Z,30.33
2018-03-15T20:31:33.125Z,29.97
2018-03-15T20:34:06.445Z,30.37
2018-03-15T20:36:33.990Z,31.50
2018-03-15T20:39:01.598Z,32.90
2018-03-15T20:41:30.029Z,31.48
2018-03-15T20:43:58.357Z,32.40
2018-03-15T20:46:32.041Z,32.08
2018-03-15T20:49:05.304Z,35.63
2018-03-15T20:51:32.844Z,33.00
2018-03-15T20:54:00.373Z,32.13
2018-03-15T20:56:27.964Z,31.90
2018-03-15T20:58:55.505Z,33.80
2018-03-15T21:01:23.049Z,32.83
2018-03-15T21:03:50.590Z,32.97
2018-03-15T21:06:18.285Z,29.17
2018-03-15T21:08:45.817Z,33.03
2018-03-15T21:11:14.110Z,33.77
2018-03-15T21:13:42.216Z,33.30
2018-03-15T21:16:09.750Z,31.43
2018-03-15T21:18:38.084Z,33.30
2018-03-15T21:21:05.611Z,32.57
2018-03-15T21:23:33.182Z,33.60
2018-03-15T21:26:01.029Z,33.03
2018-03-15T21:28:30.106Z,33.10
2018-03-15T21:30:57.629Z,34.67
2018-03-15T21:33:25.168Z,34.33
2018-03-15T21:35:52.788Z,33.40
2018-03-15T21:38:21.097Z,34.27
2018-03-15T21:40:48.650Z,35.30
2018-03-15T21:43:16.232Z,34.10
2018-03-15T21:45:44.570Z,33.20
2018-03-15T21:48:12.213Z,33.80
2018-03-15T21:50:39.844Z,33.45
2018-03-15T21:53:07.536Z,34.70
2018-03-15T21:55:35.850Z,35.10
2018-03-15T21:58:03.393Z,34.20
2018-03-15T22:00:30.912Z,34.83
2018-03-15T22:02:58.449Z,35.23
2018-03-15T22:05:26.025Z,34.58
2018-03-15T22:07:53.565Z,36.87
2018-03-15T22:10:21.130Z,39.00
2018-03-15T22:12:48.674Z,33.90
2018-03-15T22:15:16.238Z,36.50
2018-03-15T22:17:43.792Z,30.60
2018-03-15T22:20:11.440Z,35.70
2018-03-15T22:22:39.023Z,38.13
2018-03-15T22:25:07.337Z,36.23
2018-03-15T22:27:34.865Z,36.73
2018-03-15T22:30:02.441Z,35.63
2018-03-15T22:32:30.784Z,36.20
2018-03-15T22:34:58.302Z,37.87
2018-03-15T22:37:25.846Z,37.80
2018-03-15T22:39:53.386Z,37.13
2018-03-15T22:42:20.933Z,36.73
2018-03-15T22:44:48.464Z,38.47
2018-03-15T22:47:16.013Z,37.17
2018-03-15T22:49:43.553Z,37.40
2018-03-15T22:52:11.205Z,37.57
2018-03-15T22:54:38.733Z,35.67
2018-03-15T22:57:06.277Z,33.70
2018-03-15T22:59:33.797Z,38.03
2018-03-15T23:02:02.140Z,39.03
2018-03-15T23:04:30.583Z,35.13
2018-03-15T23:06:58.228Z,37.17
2018-03-15T23:09:25.749Z,37.08
2018-03-15T23:11:53.311Z,36.87
2018-03-15T23:14:20.832Z,37.72
2018-03-15T23:16:48.353Z,37.93
2018-03-15T23:19:16.665Z,36.45
2018-03-15T23:21:44.189Z,37.30
2018-03-15T23:24:12.039Z,33.70
2018-03-15T23:26:39.730Z,35.23
2018-03-15T23:29:07.174Z,35.60
2018-03-15T23:31:34.712Z,36.43
2018-03-15T23:34:02.254Z,33.00
2018-03-15T23:36:30.298Z,34.85
2018-03-15T23:38:57.862Z,35.67
2018-03-15T23:41:25.568Z,34.88
2018-03-15T23:43:53.097Z,32.83
2018-03-15T23:46:20.637Z,32.97
2018-03-15T23:48:48.164Z,34.30
2018-03-15T23:51:16.475Z,31.80
2018-03-15T23:53:43.996Z,33.10
2018-03-15T23:56:11.598Z,33.30
2018-03-15T23:58:39.130Z,32.83
